createdAt,value
2019-05-14T00:02:02.974Z,1.77
2019-05-14T00:04:33.222Z,2.20
2019-05-14T00:07:22.315Z,2.20
2019-05-14T00:09:53.390Z,2.10
2019-05-14T00:12:34.102Z,2.20
2019-05-14T00:15:05.738Z,1.82
2019-05-14T00:21:02.148Z,2.12
2019-05-14T00:23:32.084Z,2.02
2019-05-14T00:29:37.277Z,1.95
2019-05-14T00:32:25.946Z,2.10
2019-05-14T00:35:14.094Z,2.67
2019-05-14T00:40:58.088Z,2.33
2019-05-14T00:43:46.412Z,2.27
2019-05-14T00:46:37.546Z,2.30
2019-05-14T00:49:06.810Z,1.95
2019-05-14T00:51:36.115Z,2.70
2019-05-14T00:54:05.272Z,2.35
2019-05-14T00:56:34.719Z,2.52
2019-05-14T00:59:22.741Z,2.17
2019-05-14T01:02:11.357Z,2.20
2019-05-14T01:05:01.826Z,2.70
2019-05-14T01:07:51.382Z,2.67
2019-05-14T01:10:41.769Z,2.70
2019-05-14T01:13:31.326Z,2.47
2019-05-14T01:16:12.703Z,2.45
2019-05-14T01:18:53.875Z,3.22
2019-05-14T01:21:34.935Z,2.62
2019-05-14T01:24:15.399Z,2.72
2019-05-14T01:26:55.994Z,3.10
2019-05-14T01:29:36.383Z,3.10
2019-05-14T01:32:17.577Z,3.10
2019-05-14T01:34:58.497Z,2.77
2019-05-14T01:37:41.580Z,3.00
2019-05-14T01:40:22.055Z,3.30
2019-05-14T01:43:02.770Z,3.35
2019-05-14T01:45:43.290Z,3.20
2019-05-14T01:48:24.414Z,3.10
2019-05-14T01:51:05.139Z,2.75
2019-05-14T01:53:46.460Z,2.92
2019-05-14T01:56:27.292Z,3.27
2019-05-14T01:59:08.082Z,2.80
2019-05-14T02:01:51.525Z,3.22
2019-05-14T02:04:31.866Z,3.60
2019-05-14T02:07:15.920Z,3.40
2019-05-14T02:09:55.458Z,3.42
2019-05-14T02:12:36.186Z,3.47
2019-05-14T02:15:16.745Z,2.98
2019-05-14T02:17:57.478Z,3.85
2019-05-14T02:20:38.310Z,3.50
2019-05-14T02:23:19.127Z,3.40
2019-05-14T02:26:02.269Z,3.30
2019-05-14T02:28:42.821Z,3.58
2019-05-14T02:31:23.560Z,3.45
2019-05-14T02:34:04.364Z,3.60
2019-05-14T02:36:45.243Z,3.60
2019-05-14T02:39:28.983Z,3.92
2019-05-14T02:42:09.710Z,3.27
2019-05-14T02:44:51.200Z,3.62
2019-05-14T02:47:32.193Z,3.35
2019-05-14T02:50:13.394Z,3.33
2019-05-14T02:52:54.065Z,3.65
2019-05-14T02:55:35.002Z,4.20
2019-05-14T02:58:15.604Z,3.97
2019-05-14T03:01:00.425Z,3.42
2019-05-14T03:03:41.435Z,3.72
2019-05-14T03:06:22.197Z,3.75
2019-05-14T03:09:04.398Z,3.75
2019-05-14T03:11:45.297Z,3.12
2019-05-14T03:14:26.064Z,3.27
2019-05-14T03:17:10.053Z,3.70
2019-05-14T03:19:50.021Z,3.02
2019-05-14T03:22:43.063Z,3.27
2019-05-14T03:25:13.347Z,3.60
2019-05-14T03:27:53.760Z,4.00
2019-05-14T03:30:34.616Z,3.70
2019-05-14T03:33:15.625Z,3.90
2019-05-14T03:36:01.110Z,4.37
2019-05-14T03:38:39.823Z,4.05
2019-05-14T03:41:20.511Z,4.10
2019-05-14T03:44:01.599Z,4.17
2019-05-14T03:46:51.146Z,4.08
2019-05-14T03:49:24.820Z,3.67
2019-05-14T03:52:09.309Z,4.20
2019-05-14T03:54:49.663Z,3.90
2019-05-14T03:57:30.477Z,4.05
2019-05-14T04:00:11.281Z,4.03
2019-05-14T04:02:52.134Z,4.78
2019-05-14T04:05:32.866Z,4.28
2019-05-14T04:08:13.769Z,4.87
2019-05-14T04:10:54.921Z,3.98
2019-05-14T04:13:35.979Z,4.58
2019-05-14T04:16:20.001Z,4.67
2019-05-14T04:18:59.639Z,4.22
2019-05-14T04:21:41.042Z,4.20
2019-05-14T04:24:21.537Z,5.10
2019-05-14T04:27:07.872Z,5.03
2019-05-14T04:29:44.868Z,4.78
2019-05-14T04:32:29.054Z,4.50
2019-05-14T04:35:09.584Z,4.67
2019-05-14T04:37:50.731Z,4.85
2019-05-14T04:40:31.490Z,4.95
2019-05-14T04:43:12.151Z,4.97
2019-05-14T04:45:53.493Z,5.08
2019-05-14T04:48:38.684Z,5.17
2019-05-14T04:51:19.878Z,5.08
2019-05-14T04:54:00.325Z,4.92
2019-05-14T04:59:43.384Z,5.00
2019-05-14T05:02:31.368Z,4.95
2019-05-14T05:05:19.794Z,5.28
2019-05-14T05:08:09.227Z,4.72
2019-05-14T05:10:59.951Z,5.05
2019-05-14T05:13:48.728Z,5.40
2019-05-14T05:16:39.097Z,4.85
2019-05-14T05:19:29.008Z,5.00
2019-05-14T05:22:16.360Z,5.87
2019-05-14T05:25:04.658Z,5.35
2019-05-14T05:27:52.636Z,5.33
2019-05-14T05:30:40.663Z,10.85
2019-05-14T05:33:29.494Z,5.95
2019-05-14T05:39:10.001Z,5.53
2019-05-14T05:41:58.636Z,5.62
2019-05-14T05:44:48.610Z,5.33
2019-05-14T05:47:39.138Z,5.40
2019-05-14T05:50:08.672Z,5.40
2019-05-14T05:52:58.542Z,4.90
2019-05-14T05:55:48.492Z,5.17
2019-05-14T05:58:19.640Z,6.28
2019-05-14T06:01:09.697Z,4.97
2019-05-14T06:03:58.688Z,5.28
2019-05-14T06:06:48.246Z,4.58
2019-05-14T06:12:44.340Z,5.35
2019-05-14T06:15:40.831Z,5.45
2019-05-14T06:18:15.165Z,5.15
2019-05-14T06:20:50.886Z,6.35
2019-05-14T06:23:31.794Z,4.95
2019-05-14T06:26:24.026Z,5.50
2019-05-14T06:32:00.909Z,4.87
2019-05-14T06:34:42.516Z,5.30
2019-05-14T06:40:01.236Z,4.72
2019-05-14T06:42:34.702Z,6.08
2019-05-14T06:45:08.915Z,4.78
2019-05-14T06:48:26.486Z,4.60
2019-05-14T06:50:28.497Z,5.20
2019-05-14T06:56:12.881Z,4.85
2019-05-14T06:59:01.239Z,4.47
2019-05-14T07:01:49.616Z,3.98
2019-05-14T07:04:39.476Z,4.58
2019-05-14T07:07:30.074Z,4.67
2019-05-14T07:10:19.658Z,4.47
2019-05-14T07:13:08.589Z,4.45
2019-05-14T07:15:50.698Z,4.17
2019-05-14T07:18:45.568Z,5.10
2019-05-14T07:21:13.793Z,5.00
2019-05-14T07:23:54.472Z,4.10
2019-05-14T07:26:35.154Z,4.28
2019-05-14T07:29:15.763Z,3.83
2019-05-14T07:31:58.242Z,4.28
2019-05-14T07:34:39.111Z,4.10
2019-05-14T07:40:15.187Z,3.33
2019-05-14T07:42:44.158Z,3.87
2019-05-14T07:45:33.463Z,4.08
2019-05-14T07:48:22.434Z,3.58
2019-05-14T07:51:10.756Z,3.70
2019-05-14T07:53:59.126Z,3.83
2019-05-14T07:56:50.903Z,3.60
2019-05-14T07:59:38.096Z,3.10
2019-05-14T08:05:34.008Z,3.72
2019-05-14T08:08:22.301Z,3.35
2019-05-14T08:11:10.627Z,3.77
2019-05-14T08:13:58.742Z,11.28
2019-05-14T08:16:28.779Z,3.55
2019-05-14T08:19:26.818Z,3.47
2019-05-14T08:22:09.269Z,3.90
2019-05-14T08:24:58.108Z,3.00
2019-05-14T08:27:48.180Z,3.05
2019-05-14T08:33:30.353Z,3.50
2019-05-14T08:36:18.654Z,3.90
2019-05-14T08:39:08.841Z,2.98
2019-05-14T08:42:03.667Z,3.40
2019-05-14T08:44:51.205Z,3.90
2019-05-14T08:51:08.878Z,3.62
2019-05-14T08:53:58.959Z,3.33
2019-05-14T09:03:02.696Z,3.52
2019-05-14T09:06:03.580Z,2.90
2019-05-14T09:11:26.592Z,2.90
2019-05-14T09:14:10.863Z,3.33
2019-05-14T09:16:59.558Z,2.98
2019-05-14T09:19:57.266Z,3.12
2019-05-14T09:22:21.296Z,2.87
2019-05-14T09:25:03.902Z,3.00
2019-05-14T09:27:45.232Z,3.55
2019-05-14T09:30:14.269Z,2.70
2019-05-14T09:32:43.169Z,2.25
2019-05-14T09:35:31.263Z,2.33
2019-05-14T09:37:59.980Z,2.30
2019-05-14T09:40:29.112Z,2.50
2019-05-14T09:45:53.113Z,2.40
2019-05-14T09:48:22.194Z,2.40
2019-05-14T09:54:20.469Z,2.08
2019-05-14T10:06:09.485Z,2.30
2019-05-14T10:12:25.599Z,2.12
2019-05-14T10:15:13.585Z,2.17
2019-05-14T10:17:54.586Z,2.42
2019-05-14T10:20:40.979Z,1.80
2019-05-14T10:23:18.902Z,2.15
2019-05-14T10:25:59.673Z,2.27
2019-05-14T10:28:43.421Z,1.92
2019-05-14T10:31:23.023Z,2.17
2019-05-14T10:34:04.322Z,1.90
2019-05-14T10:36:48.091Z,1.98
2019-05-14T10:39:49.298Z,1.70
2019-05-14T10:42:20.195Z,2.05
2019-05-14T10:45:00.570Z,1.85
2019-05-14T10:47:41.382Z,1.70
2019-05-14T10:50:25.246Z,1.85
2019-05-14T10:55:49.687Z,2.05
2019-05-14T10:58:30.497Z,1.70
2019-05-14T11:01:11.536Z,2.12
2019-05-14T11:06:38.607Z,1.92
2019-05-14T11:09:20.474Z,1.80
2019-05-14T11:12:01.747Z,1.90
2019-05-14T11:17:28.884Z,1.80
2019-05-14T11:20:09.448Z,1.85
2019-05-14T11:22:50.229Z,2.00
2019-05-14T11:25:30.995Z,2.17
2019-05-14T11:28:12.218Z,2.05
2019-05-14T11:30:53.278Z,1.80
2019-05-14T11:33:33.754Z,1.85
2019-05-14T11:36:14.612Z,1.55
2019-05-14T11:38:55.475Z,1.50
2019-05-14T11:41:38.711Z,1.77
2019-05-14T11:44:18.291Z,1.67
2019-05-14T11:52:55.562Z,2.10
2019-05-14T11:55:38.850Z,1.92
2019-05-14T11:58:29.356Z,1.70
2019-05-14T12:01:04.043Z,1.62
2019-05-14T12:03:50.670Z,1.92
2019-05-14T12:06:50.117Z,1.55
2019-05-14T12:09:20.605Z,1.92
2019-05-14T12:14:38.019Z,1.42
2019-05-14T12:20:21.993Z,1.52
2019-05-14T12:23:24.520Z,2.30
2019-05-14T12:33:30.515Z,1.80
2019-05-14T12:35:41.426Z,2.00
2019-05-14T12:41:30.249Z,1.52
2019-05-14T12:47:39.040Z,2.12
2019-05-14T12:50:27.793Z,1.72
2019-05-14T12:53:21.223Z,2.15
2019-05-14T12:55:51.116Z,1.90
2019-05-14T12:58:44.896Z,1.70
2019-05-14T13:01:49.424Z,1.70
2019-05-14T13:07:51.154Z,2.05
2019-05-14T13:10:39.706Z,1.72
2019-05-14T13:16:39.665Z,1.92
2019-05-14T13:22:13.614Z,1.42
2019-05-14T13:24:52.254Z,1.67
2019-05-14T13:34:39.349Z,1.47
2019-05-14T13:36:45.158Z,1.62
2019-05-14T13:39:33.454Z,1.05
2019-05-14T13:42:21.656Z,1.62
2019-05-14T13:45:10.422Z,1.52
2019-05-14T13:47:59.465Z,1.57
2019-05-14T13:50:29.432Z,1.75
2019-05-14T13:53:07.606Z,1.30
2019-05-14T13:55:30.689Z,1.50
2019-05-14T14:01:09.677Z,1.30
2019-05-14T14:03:46.806Z,1.32
2019-05-14T14:06:10.499Z,1.15
2019-05-14T14:08:59.255Z,1.57
2019-05-14T14:11:48.349Z,1.50
2019-05-14T14:17:10.790Z,1.95
2019-05-14T14:19:39.541Z,1.25
2019-05-14T14:25:23.730Z,1.30
2019-05-14T14:28:11.836Z,1.40
2019-05-14T14:30:40.613Z,1.30
2019-05-14T14:33:28.977Z,1.25
2019-05-14T14:40:10.779Z,1.17
2019-05-14T14:42:59.570Z,1.12
2019-05-14T14:45:51.282Z,1.00
2019-05-14T14:54:15.820Z,1.20
2019-05-14T15:07:17.059Z,1.75
2019-05-14T15:16:55.495Z,1.47
2019-05-14T15:19:34.596Z,1.22
2019-05-14T15:22:22.800Z,1.27
2019-05-14T15:25:10.874Z,1.40
2019-05-14T15:27:58.985Z,1.05
2019-05-14T15:30:49.638Z,1.35
2019-05-14T15:33:36.697Z,1.37
2019-05-14T15:36:24.709Z,1.32
2019-05-14T15:39:12.738Z,1.30
2019-05-14T15:42:05.477Z,1.30
2019-05-14T15:44:55.837Z,1.07
2019-05-14T15:47:40.333Z,1.07
2019-05-14T15:50:32.814Z,1.60
2019-05-14T15:53:19.954Z,1.20
2019-05-14T15:56:08.152Z,1.42
2019-05-14T15:59:01.110Z,1.37
2019-05-14T16:01:46.106Z,1.40
2019-05-14T16:04:38.829Z,1.22
2019-05-14T16:07:29.272Z,1.02
2019-05-14T16:13:30.403Z,1.70
2019-05-14T16:16:39.238Z,1.50
2019-05-14T16:19:28.465Z,1.55
2019-05-14T16:22:19.387Z,1.32
2019-05-14T16:25:08.893Z,1.60
2019-05-14T16:27:59.332Z,1.12
2019-05-14T16:30:49.538Z,1.15
2019-05-14T16:33:36.365Z,1.22
2019-05-14T16:36:24.431Z,1.50
2019-05-14T16:39:12.568Z,1.10
2019-05-14T16:42:00.582Z,1.17
2019-05-14T16:44:48.599Z,1.40
2019-05-14T16:47:39.454Z,0.93
2019-05-14T16:50:28.600Z,1.65
2019-05-14T16:53:16.066Z,1.10
2019-05-14T16:56:04.183Z,0.90
2019-05-14T16:59:11.537Z,1.27
2019-05-14T17:02:09.184Z,1.10
2019-05-14T17:05:17.150Z,1.37
2019-05-14T17:08:05.399Z,0.95
2019-05-14T17:10:53.576Z,1.12
2019-05-14T17:22:48.762Z,1.30
2019-05-14T17:25:31.893Z,1.17
2019-05-14T17:30:57.074Z,1.10
2019-05-14T17:36:52.021Z,1.00
2019-05-14T17:39:18.725Z,1.07
2019-05-14T17:42:00.351Z,1.65
2019-05-14T17:45:16.963Z,1.15
2019-05-14T17:47:49.128Z,1.25
2019-05-14T17:50:34.317Z,1.35
2019-05-14T18:02:05.690Z,1.10
2019-05-14T18:04:56.266Z,1.82
2019-05-14T18:08:52.607Z,0.95
2019-05-14T18:10:46.437Z,1.15
2019-05-14T18:13:18.175Z,1.10
2019-05-14T18:16:03.373Z,1.00
2019-05-14T18:25:33.963Z,1.27
2019-05-14T18:28:28.633Z,1.30
2019-05-14T18:33:55.735Z,1.30
2019-05-14T18:46:20.010Z,1.57
2019-05-14T18:51:54.020Z,1.10
2019-05-14T18:54:42.149Z,1.50
2019-05-14T18:57:30.221Z,2.25
2019-05-14T19:00:18.688Z,1.40
2019-05-14T19:03:08.521Z,1.30
2019-05-14T19:05:58.677Z,1.30
2019-05-14T19:08:28.818Z,1.50
2019-05-14T19:11:17.478Z,1.57
2019-05-14T19:14:05.427Z,1.50
2019-05-14T19:16:53.695Z,1.75
2019-05-14T19:22:29.763Z,1.82
2019-05-14T19:25:10.735Z,1.82
2019-05-14T19:27:54.329Z,2.12
2019-05-14T19:30:34.549Z,1.82
2019-05-14T19:33:03.360Z,1.42
2019-05-14T19:35:51.499Z,1.80
2019-05-14T19:38:39.528Z,1.57
2019-05-14T19:41:08.747Z,1.90
2019-05-14T19:43:59.588Z,1.60
2019-05-14T19:46:29.238Z,1.72
2019-05-14T19:49:18.686Z,1.90
2019-05-14T19:58:04.180Z,1.62
2019-05-14T20:00:52.574Z,1.85
2019-05-14T20:04:09.857Z,1.52
2019-05-14T20:07:18.443Z,1.65
2019-05-14T20:09:35.205Z,1.72
2019-05-14T20:12:03.927Z,2.20
2019-05-14T20:15:12.752Z,1.82
2019-05-14T20:18:02.652Z,1.77
2019-05-14T20:23:54.719Z,1.82
2019-05-14T20:29:19.252Z,1.90
2019-05-14T20:32:08.718Z,1.65
2019-05-14T20:37:58.610Z,1.77
2019-05-14T20:40:39.598Z,1.85
2019-05-14T20:43:20.943Z,1.62
2019-05-14T20:46:01.470Z,2.00
2019-05-14T20:51:30.383Z,2.00
2019-05-14T20:54:11.379Z,2.20
2019-05-14T20:56:51.977Z,1.75
2019-05-14T20:59:33.450Z,1.75
2019-05-14T21:02:02.398Z,2.05
2019-05-14T21:04:31.198Z,2.00
2019-05-14T21:07:21.627Z,2.17
2019-05-14T21:10:30.011Z,2.20
2019-05-14T21:12:59.216Z,2.00
2019-05-14T21:15:50.635Z,2.10
2019-05-14T21:18:41.171Z,2.10
2019-05-14T21:21:22.201Z,2.77
2019-05-14T21:24:02.793Z,2.37
2019-05-14T21:26:44.351Z,2.05
2019-05-14T21:29:13.204Z,2.40
2019-05-14T21:32:01.683Z,1.90
2019-05-14T21:34:51.161Z,2.40
2019-05-14T21:37:39.645Z,2.02
2019-05-14T21:40:09.748Z,2.15
2019-05-14T21:42:57.864Z,2.70
2019-05-14T21:45:45.974Z,2.33
2019-05-14T21:48:14.756Z,2.35
2019-05-14T21:50:43.654Z,2.55
2019-05-14T21:53:31.691Z,2.85
2019-05-14T21:56:21.764Z,2.55
2019-05-14T21:59:09.828Z,2.72
2019-05-14T22:05:19.160Z,2.72
2019-05-14T22:08:08.851Z,2.62
2019-05-14T22:10:58.518Z,2.35
2019-05-14T22:16:40.558Z,3.08
2019-05-14T22:19:28.698Z,3.10
2019-05-14T22:22:18.641Z,2.50
2019-05-14T22:25:07.005Z,2.70
2019-05-14T22:28:08.997Z,3.10
2019-05-14T22:30:44.821Z,2.95
2019-05-14T22:33:33.244Z,2.90
2019-05-14T22:36:21.641Z,3.27
2019-05-14T22:39:11.123Z,3.05
2019-05-14T22:42:00.233Z,2.98
2019-05-14T22:44:50.412Z,2.65
2019-05-14T22:51:24.261Z,2.80
2019-05-14T22:54:12.236Z,2.50
2019-05-14T22:57:00.275Z,2.50
2019-05-14T22:59:48.687Z,2.60
2019-05-14T23:02:38.473Z,2.40
2019-05-14T23:05:28.782Z,2.25
2019-05-14T23:08:18.380Z,2.50
2019-05-14T23:11:08.505Z,2.20
2019-05-14T23:17:02.842Z,2.27
2019-05-14T23:19:50.812Z,2.17
2019-05-14T23:22:31.698Z,2.10
2019-05-14T23:25:12.519Z,2.72
2019-05-14T23:27:53.302Z,2.10
2019-05-14T23:30:34.299Z,2.30
2019-05-14T23:33:15.316Z,2.30
2019-05-14T23:35:55.861Z,2.50
2019-05-14T23:38:38.621Z,2.25
2019-05-14T23:41:18.894Z,2.33
2019-05-14T23:43:59.395Z,2.15
2019-05-14T23:46:40.214Z,2.60
2019-05-14T23:49:20.879Z,2.37
2019-05-14T23:52:01.866Z,2.02
2019-05-14T23:54:43.050Z,2.22
2019-05-14T23:57:31.088Z,2.08
